createdAt,value
2022-08-17T00:00:49.420Z,18.82
2022-08-17T00:03:25.766Z,18.74
2022-08-17T00:05:59.945Z,18.61
2022-08-17T00:08:34.561Z,18.49
2022-08-17T00:11:10.302Z,18.43
2022-08-17T00:13:48.457Z,18.42
2022-08-17T00:16:23.069Z,18.44
2022-08-17T00:19:17.959Z,18.46
2022-08-17T00:22:33.120Z,18.46
2022-08-17T00:24:42.888Z,18.51
2022-08-17T00:27:14.588Z,18.53
2022-08-17T00:29:46.881Z,18.56
2022-08-17T00:33:15.945Z,18.58
2022-08-17T00:35:13.965Z,18.57
2022-08-17T00:37:46.155Z,18.52
2022-08-17T00:40:19.332Z,18.45
2022-08-17T00:42:51.734Z,18.41
2022-08-17T00:45:23.743Z,18.35
2022-08-17T00:47:55.261Z,18.26
2022-08-17T00:50:26.848Z,18.15
2022-08-17T00:53:00.291Z,18.09
2022-08-17T00:55:32.862Z,18.08
2022-08-17T00:58:06.667Z,18.08
2022-08-17T01:00:41.942Z,18.08
2022-08-17T01:03:18.913Z,18.08
2022-08-17T01:05:51.522Z,18.08
2022-08-17T01:08:27.128Z,18.07
2022-08-17T01:11:02.475Z,18.03
2022-08-17T01:13:40.999Z,17.97
2022-08-17T01:16:17.810Z,17.94
2022-08-17T01:18:53.335Z,17.91
2022-08-17T01:21:32.876Z,17.90
2022-08-17T01:24:05.499Z,17.82
2022-08-17T01:26:37.950Z,17.68
2022-08-17T01:29:10.463Z,17.61
2022-08-17T01:31:45.728Z,17.63
2022-08-17T01:34:18.872Z,17.66
2022-08-17T01:36:52.584Z,17.70
2022-08-17T01:39:31.237Z,17.74
2022-08-17T01:42:09.429Z,17.76
2022-08-17T01:44:42.115Z,17.78
2022-08-17T01:47:13.966Z,17.77
2022-08-17T01:49:45.545Z,17.76
2022-08-17T01:52:17.973Z,17.74
2022-08-17T01:54:50.282Z,17.68
2022-08-17T01:57:21.912Z,17.66
2022-08-17T01:59:53.456Z,17.63
2022-08-17T02:02:30.475Z,17.62
2022-08-17T02:05:03.118Z,17.65
2022-08-17T02:07:59.982Z,17.66
2022-08-17T02:10:34.095Z,17.64
2022-08-17T02:13:07.096Z,17.61
2022-08-17T02:15:39.049Z,17.59
2022-08-17T02:18:11.625Z,17.59
2022-08-17T02:20:43.628Z,17.58
2022-08-17T02:23:15.697Z,17.54
2022-08-17T02:25:48.881Z,17.48
2022-08-17T02:28:21.390Z,17.41
2022-08-17T02:31:01.747Z,17.28
2022-08-17T02:33:42.716Z,17.15
2022-08-17T02:36:15.632Z,17.05
2022-08-17T02:38:47.740Z,17.02
2022-08-17T02:41:19.287Z,17.05
2022-08-17T02:43:51.144Z,17.09
2022-08-17T02:46:22.787Z,17.15
2022-08-17T02:48:54.532Z,17.16
2022-08-17T02:51:26.461Z,17.12
2022-08-17T02:54:35.588Z,17.04
2022-08-17T02:56:49.654Z,16.96
2022-08-17T02:59:21.165Z,16.90
2022-08-17T03:01:53.735Z,16.87
2022-08-17T03:04:25.417Z,16.84
2022-08-17T03:06:56.938Z,16.80
2022-08-17T03:09:28.815Z,16.76
2022-08-17T03:12:07.525Z,16.74
2022-08-17T03:14:41.886Z,16.76
2022-08-17T03:17:17.114Z,16.77
2022-08-17T03:19:49.214Z,16.79
2022-08-17T03:22:36.693Z,16.82
2022-08-17T03:25:19.615Z,16.86
2022-08-17T03:27:54.518Z,16.89
2022-08-17T03:30:28.180Z,16.89
2022-08-17T03:33:01.744Z,16.87
2022-08-17T03:35:36.389Z,16.78
2022-08-17T03:38:08.874Z,16.72
2022-08-17T03:40:58.931Z,16.70
2022-08-17T03:43:33.372Z,16.70
2022-08-17T03:46:34.229Z,16.70
2022-08-17T03:49:26.667Z,16.75
2022-08-17T03:52:16.992Z,16.77
2022-08-17T03:55:11.441Z,16.76
2022-08-17T03:57:43.212Z,16.70
2022-08-17T04:00:17.817Z,16.68
2022-08-17T04:02:49.676Z,16.74
2022-08-17T04:05:22.022Z,16.87
2022-08-17T04:07:53.602Z,17.05
2022-08-17T04:10:26.534Z,17.28
2022-08-17T04:12:59.216Z,17.54
2022-08-17T04:15:31.118Z,17.75
2022-08-17T04:18:02.845Z,17.92
2022-08-17T04:20:37.527Z,18.04
2022-08-17T04:23:11.297Z,18.20
2022-08-17T04:25:48.200Z,18.49
2022-08-17T04:28:21.178Z,18.87
2022-08-17T04:30:52.797Z,19.27
2022-08-17T04:33:25.661Z,19.71
2022-08-17T04:35:59.873Z,20.15
2022-08-17T04:38:33.942Z,20.62
2022-08-17T04:41:25.241Z,21.08
2022-08-17T04:43:58.504Z,21.59
2022-08-17T04:46:33.882Z,22.01
2022-08-17T04:49:08.416Z,22.41
2022-08-17T04:51:54.546Z,22.76
2022-08-17T04:54:27.937Z,23.17
2022-08-17T04:56:59.593Z,23.59
2022-08-17T04:59:31.055Z,24.05
2022-08-17T05:02:02.733Z,24.53
2022-08-17T05:04:35.496Z,24.91
2022-08-17T05:07:07.163Z,25.29
2022-08-17T05:09:38.609Z,25.70
2022-08-17T05:12:10.524Z,26.08
2022-08-17T05:14:42.437Z,26.46
2022-08-17T05:17:14.049Z,26.68
2022-08-17T05:19:51.784Z,26.92
2022-08-17T05:22:23.639Z,27.27
2022-08-17T05:24:56.106Z,27.58
2022-08-17T05:27:30.837Z,27.99
2022-08-17T05:30:08.641Z,28.48
2022-08-17T05:32:40.442Z,28.96
2022-08-17T05:35:12.473Z,29.37
2022-08-17T05:37:44.534Z,29.81
2022-08-17T05:40:19.033Z,30.29
2022-08-17T05:42:51.168Z,30.66
2022-08-17T05:45:23.684Z,30.86
2022-08-17T05:48:16.750Z,31.03
2022-08-17T05:50:57.073Z,31.32
2022-08-17T05:53:31.812Z,31.78
2022-08-17T05:56:29.592Z,32.06
2022-08-17T05:59:12.247Z,32.48
2022-08-17T06:01:51.312Z,32.70
2022-08-17T06:04:42.920Z,32.74
2022-08-17T06:07:21.822Z,32.67
2022-08-17T06:10:04.355Z,32.75
2022-08-17T06:12:48.869Z,32.87
2022-08-17T06:15:32.210Z,32.90
2022-08-17T06:18:07.487Z,33.03
2022-08-17T06:20:48.155Z,33.30
2022-08-17T06:23:26.455Z,33.55
2022-08-17T06:26:03.801Z,33.77
2022-08-17T06:28:41.240Z,34.18
2022-08-17T06:31:20.029Z,34.60
2022-08-17T06:33:52.031Z,34.98
2022-08-17T06:36:40.281Z,34.94
2022-08-17T06:39:33.436Z,34.71
2022-08-17T06:43:02.269Z,34.62
2022-08-17T06:45:13.538Z,34.76
2022-08-17T06:47:50.152Z,35.18
2022-08-17T06:50:28.512Z,35.58
2022-08-17T06:53:05.315Z,35.95
2022-08-17T06:55:46.564Z,36.34
2022-08-17T06:58:22.980Z,36.72
2022-08-17T07:01:06.037Z,37.05
2022-08-17T07:03:43.840Z,37.41
2022-08-17T07:06:20.109Z,37.68
2022-08-17T07:09:00.048Z,37.43
2022-08-17T07:11:38.802Z,37.58
2022-08-17T07:14:39.271Z,37.65
2022-08-17T07:17:14.249Z,37.61
2022-08-17T07:19:50.131Z,37.72
2022-08-17T07:22:31.273Z,37.84
2022-08-17T07:25:23.332Z,37.95
2022-08-17T07:27:59.764Z,37.86
2022-08-17T07:30:44.580Z,37.83
2022-08-17T07:33:22.710Z,37.65
2022-08-17T07:35:54.904Z,37.54
2022-08-17T07:38:28.538Z,37.70
2022-08-17T07:41:06.611Z,37.81
2022-08-17T07:43:47.800Z,37.65
2022-08-17T07:46:39.645Z,37.08
2022-08-17T07:49:24.836Z,36.31
2022-08-17T07:52:24.326Z,35.56
2022-08-17T07:55:01.082Z,34.72
2022-08-17T07:57:37.138Z,34.01
2022-08-17T08:00:19.697Z,33.28
2022-08-17T08:03:28.547Z,32.60
2022-08-17T08:06:03.481Z,32.12
2022-08-17T08:08:42.310Z,31.85
2022-08-17T08:11:30.978Z,31.62
2022-08-17T08:14:22.515Z,31.43
2022-08-17T08:17:02.879Z,31.20
2022-08-17T08:19:35.439Z,31.02
2022-08-17T08:22:11.256Z,30.82
2022-08-17T08:25:02.299Z,30.69
2022-08-17T08:27:48.095Z,30.51
2022-08-17T08:30:22.269Z,30.21
2022-08-17T08:33:12.556Z,30.04
2022-08-17T08:35:50.060Z,29.82
2022-08-17T08:38:30.823Z,29.60
2022-08-17T08:41:17.267Z,29.57
2022-08-17T08:43:56.990Z,29.59
2022-08-17T08:46:38.577Z,29.68
2022-08-17T08:50:01.930Z,29.66
2022-08-17T08:52:39.967Z,29.69
2022-08-17T08:55:19.282Z,29.63
2022-08-17T08:57:57.502Z,29.63
2022-08-17T09:00:35.766Z,29.65
2022-08-17T09:03:51.922Z,29.56
2022-08-17T09:06:38.972Z,29.22
2022-08-17T09:09:24.494Z,29.24
2022-08-17T09:12:06.343Z,29.37
2022-08-17T09:14:46.904Z,29.46
2022-08-17T09:17:22.942Z,29.41
2022-08-17T09:20:00.937Z,29.28
2022-08-17T09:22:38.752Z,29.26
2022-08-17T09:25:13.624Z,29.29
2022-08-17T09:27:52.371Z,29.37
2022-08-17T09:30:25.022Z,29.41
2022-08-17T09:33:00.081Z,29.49
2022-08-17T09:35:37.668Z,29.57
2022-08-17T09:38:25.065Z,29.61
2022-08-17T09:41:08.634Z,29.70
2022-08-17T09:43:47.643Z,29.84
2022-08-17T09:46:22.832Z,29.93
2022-08-17T09:49:04.260Z,29.88
2022-08-17T09:51:41.145Z,29.86
2022-08-17T09:54:38.706Z,29.90
2022-08-17T09:57:32.299Z,29.93
2022-08-17T10:00:20.461Z,29.80
2022-08-17T10:03:17.182Z,29.61
2022-08-17T10:05:56.773Z,29.57
2022-08-17T10:08:38.105Z,29.59
2022-08-17T10:11:19.466Z,29.57
2022-08-17T10:13:58.371Z,29.54
2022-08-17T10:16:41.340Z,29.59
2022-08-17T10:19:20.363Z,29.70
2022-08-17T10:22:35.244Z,29.79
2022-08-17T10:25:42.586Z,29.86
2022-08-17T10:28:29.473Z,30.04
2022-08-17T10:31:32.970Z,30.17
2022-08-17T10:34:28.042Z,30.28
2022-08-17T10:37:23.593Z,30.37
2022-08-17T10:40:09.031Z,30.28
2022-08-17T10:42:53.306Z,30.32
2022-08-17T10:45:32.219Z,30.44
2022-08-17T10:48:22.021Z,30.50
2022-08-17T10:51:01.822Z,30.53
2022-08-17T10:53:54.934Z,30.45
2022-08-17T10:56:42.723Z,30.33
2022-08-17T10:59:59.425Z,30.18
2022-08-17T11:02:39.641Z,30.18
2022-08-17T11:05:23.668Z,30.27
2022-08-17T11:08:08.414Z,30.39
2022-08-17T11:11:07.578Z,30.47
2022-08-17T11:13:48.441Z,30.43
2022-08-17T11:16:45.608Z,30.26
2022-08-17T11:19:43.448Z,30.02
2022-08-17T11:22:33.587Z,29.85
2022-08-17T11:25:17.381Z,29.70
2022-08-17T11:27:53.846Z,29.57
2022-08-17T11:30:48.452Z,29.57
2022-08-17T11:33:56.019Z,29.67
2022-08-17T11:36:56.042Z,29.75
2022-08-17T11:39:42.777Z,29.78
2022-08-17T11:42:32.594Z,29.84
2022-08-17T11:45:32.292Z,29.88
2022-08-17T11:48:34.248Z,29.88
2022-08-17T11:51:29.470Z,29.95
2022-08-17T11:57:23.892Z,30.21
2022-08-17T12:00:11.237Z,30.31
2022-08-17T12:02:48.908Z,30.26
2022-08-17T12:05:38.765Z,30.12
2022-08-17T12:08:18.564Z,29.95
2022-08-17T12:10:59.291Z,29.82
2022-08-17T12:13:40.665Z,29.77
2022-08-17T12:16:17.355Z,29.81
2022-08-17T12:18:54.246Z,29.87
2022-08-17T12:21:43.641Z,29.93
2022-08-17T12:24:33.644Z,29.96
2022-08-17T12:27:08.021Z,29.99
2022-08-17T12:29:43.790Z,30.11
2022-08-17T12:32:20.586Z,30.20
2022-08-17T12:34:55.204Z,30.29
2022-08-17T12:37:31.981Z,30.41
2022-08-17T12:40:09.486Z,30.55
2022-08-17T12:42:41.773Z,30.63
2022-08-17T12:45:25.780Z,30.61
2022-08-17T12:48:07.840Z,30.63
2022-08-17T12:50:41.582Z,30.60
2022-08-17T12:53:15.848Z,30.65
2022-08-17T12:55:48.482Z,30.74
2022-08-17T12:58:25.261Z,30.77
2022-08-17T13:01:04.335Z,30.87
2022-08-17T13:03:45.543Z,31.03
2022-08-17T13:06:32.090Z,31.14
2022-08-17T13:09:14.510Z,31.15
2022-08-17T13:11:52.932Z,30.95
2022-08-17T13:14:28.143Z,30.71
2022-08-17T13:17:06.270Z,30.58
2022-08-17T13:19:50.553Z,30.60
2022-08-17T13:22:26.666Z,30.61
2022-08-17T13:25:03.656Z,30.63
2022-08-17T13:27:35.517Z,30.64
2022-08-17T13:30:20.753Z,30.68
2022-08-17T13:33:05.003Z,30.72
2022-08-17T13:35:45.888Z,30.80
2022-08-17T13:41:40.579Z,30.95
2022-08-17T13:44:36.563Z,31.00
2022-08-17T13:47:14.062Z,31.09
2022-08-17T13:49:48.899Z,31.20
2022-08-17T13:52:37.858Z,31.21
2022-08-17T13:55:15.401Z,31.17
2022-08-17T13:57:46.966Z,31.13
2022-08-17T14:00:30.022Z,31.09
2022-08-17T14:02:59.350Z,31.10
2022-08-17T14:05:28.959Z,31.10
2022-08-17T14:08:00.530Z,31.11
2022-08-17T14:10:29.662Z,31.15
2022-08-17T14:12:57.937Z,31.18
2022-08-17T14:15:54.543Z,31.24
2022-08-17T14:18:17.683Z,31.31
2022-08-17T14:20:46.655Z,31.30
2022-08-17T14:23:15.116Z,31.15
2022-08-17T14:25:45.192Z,30.96
2022-08-17T14:28:15.109Z,30.73
2022-08-17T14:30:43.557Z,30.51
2022-08-17T14:33:12.205Z,30.36
2022-08-17T14:35:40.661Z,30.34
2022-08-17T14:38:09.210Z,30.37
2022-08-17T14:40:38.560Z,30.38
2022-08-17T14:43:07.093Z,30.32
2022-08-17T14:45:35.523Z,30.25
2022-08-17T14:48:06.914Z,30.16
2022-08-17T14:50:38.420Z,30.05
2022-08-17T14:53:08.943Z,29.93
2022-08-17T14:55:40.132Z,29.84
2022-08-17T14:58:08.721Z,29.81
2022-08-17T15:00:38.994Z,29.83
2022-08-17T15:03:07.509Z,29.89
2022-08-17T15:05:38.400Z,29.95
2022-08-17T15:08:07.101Z,29.99
2022-08-17T15:10:36.759Z,30.03
2022-08-17T15:13:10.252Z,30.04
2022-08-17T15:15:39.229Z,30.04
2022-08-17T15:18:07.767Z,30.07
2022-08-17T15:20:36.310Z,30.11
2022-08-17T15:23:06.358Z,30.15
2022-08-17T15:25:38.871Z,30.17
2022-08-17T15:28:08.590Z,30.06
2022-08-17T15:30:42.221Z,29.94
2022-08-17T15:33:14.817Z,29.82
2022-08-17T15:35:50.486Z,29.73
2022-08-17T15:38:29.670Z,29.72
2022-08-17T15:41:31.116Z,29.75
2022-08-17T15:43:59.880Z,29.71
2022-08-17T15:46:30.928Z,29.66
2022-08-17T15:49:19.492Z,29.61
2022-08-17T15:51:56.607Z,29.60
2022-08-17T15:54:25.774Z,29.58
2022-08-17T15:57:01.145Z,29.55
2022-08-17T15:59:29.811Z,29.57
2022-08-17T16:03:13.775Z,29.53
2022-08-17T16:04:51.750Z,29.47
2022-08-17T16:07:24.454Z,29.46
2022-08-17T16:09:55.675Z,29.42
2022-08-17T16:12:24.653Z,29.35
2022-08-17T16:15:08.470Z,29.29
2022-08-17T16:17:39.976Z,29.22
2022-08-17T16:20:20.021Z,29.18
2022-08-17T16:22:50.544Z,29.17
2022-08-17T16:25:22.067Z,29.14
2022-08-17T16:27:52.756Z,29.11
2022-08-17T16:30:24.709Z,29.08
2022-08-17T16:32:54.533Z,29.04
2022-08-17T16:35:26.419Z,29.02
2022-08-17T16:37:58.527Z,28.97
2022-08-17T16:40:29.543Z,28.92
2022-08-17T16:42:59.629Z,28.87
2022-08-17T16:45:35.671Z,28.84
2022-08-17T16:48:07.521Z,28.83
2022-08-17T16:50:36.534Z,28.81
2022-08-17T16:53:08.320Z,28.79
2022-08-17T16:55:37.800Z,28.72
2022-08-17T16:58:45.417Z,28.66
2022-08-17T17:01:27.388Z,28.61
2022-08-17T17:03:59.580Z,28.52
2022-08-17T17:06:37.504Z,28.39
2022-08-17T17:09:10.352Z,28.24
2022-08-17T17:11:43.884Z,28.09
2022-08-17T17:14:17.507Z,27.95
2022-08-17T17:16:51.870Z,27.83
2022-08-17T17:19:34.628Z,27.71
2022-08-17T17:22:13.603Z,27.61
2022-08-17T17:24:51.322Z,27.53
2022-08-17T17:27:36.313Z,27.44
2022-08-17T17:30:10.104Z,27.30
2022-08-17T17:32:46.443Z,27.19
2022-08-17T17:35:22.703Z,27.09
2022-08-17T17:37:52.912Z,26.98
2022-08-17T17:40:25.161Z,26.88
2022-08-17T17:43:09.270Z,26.77
2022-08-17T17:45:52.873Z,26.67
2022-08-17T17:48:21.312Z,26.55
2022-08-17T17:51:01.994Z,26.44
2022-08-17T17:53:43.009Z,26.32
2022-08-17T17:56:43.271Z,26.17
2022-08-17T17:59:17.565Z,26.10
2022-08-17T18:01:55.028Z,26.04
2022-08-17T18:04:30.562Z,25.98
2022-08-17T18:07:18.989Z,25.92
2022-08-17T18:10:19.739Z,25.87
2022-08-17T18:13:10.778Z,25.80
2022-08-17T18:15:50.287Z,25.75
2022-08-17T18:18:37.265Z,25.68
2022-08-17T18:21:17.870Z,25.61
2022-08-17T18:23:53.835Z,25.56
2022-08-17T18:26:41.924Z,25.48
2022-08-17T18:29:38.193Z,25.40
2022-08-17T18:32:30.586Z,25.28
2022-08-17T18:35:05.051Z,25.16
2022-08-17T18:37:45.533Z,25.08
2022-08-17T18:40:39.083Z,25.01
2022-08-17T18:43:22.956Z,24.94
2022-08-17T18:45:53.860Z,24.88
2022-08-17T18:48:38.606Z,24.81
2022-08-17T18:51:40.839Z,24.73
2022-08-17T18:54:22.034Z,24.61
2022-08-17T18:56:53.820Z,24.44
2022-08-17T18:59:42.200Z,24.33
2022-08-17T19:02:45.597Z,24.24
2022-08-17T19:05:27.125Z,24.14
2022-08-17T19:08:18.552Z,24.07
2022-08-17T19:10:50.200Z,24.02
2022-08-17T19:13:24.887Z,23.96
2022-08-17T19:16:12.058Z,23.88
2022-08-17T19:18:48.745Z,23.75
2022-08-17T19:21:21.360Z,23.66
2022-08-17T19:23:57.969Z,23.60
2022-08-17T19:26:53.742Z,23.55
2022-08-17T19:29:24.984Z,23.49
2022-08-17T19:31:54.597Z,23.41
2022-08-17T19:34:30.073Z,23.31
2022-08-17T19:37:09.421Z,23.19
2022-08-17T19:39:50.480Z,23.06
2022-08-17T19:42:41.823Z,22.97
2022-08-17T19:45:22.441Z,22.90
2022-08-17T19:48:02.858Z,22.86
2022-08-17T19:50:37.779Z,22.83
2022-08-17T19:53:17.840Z,22.76
2022-08-17T19:55:59.414Z,22.67
2022-08-17T19:58:51.896Z,22.50
2022-08-17T20:01:34.876Z,22.41
2022-08-17T20:04:12.421Z,22.40
2022-08-17T20:06:46.076Z,22.39
2022-08-17T20:09:20.777Z,22.36
2022-08-17T20:11:55.538Z,22.29
2022-08-17T20:14:30.683Z,22.25
2022-08-17T20:17:02.590Z,22.24
2022-08-17T20:19:42.808Z,22.19
2022-08-17T20:22:20.366Z,22.14
2022-08-17T20:24:58.360Z,22.11
2022-08-17T20:27:31.537Z,22.09
2022-08-17T20:30:06.573Z,22.06
2022-08-17T20:32:48.684Z,22.03
2022-08-17T20:35:24.486Z,22.00
2022-08-17T20:37:57.159Z,21.94
2022-08-17T20:40:29.118Z,21.90
2022-08-17T20:42:59.099Z,21.88
2022-08-17T20:45:58.307Z,21.86
2022-08-17T20:48:38.307Z,21.79
2022-08-17T20:51:22.221Z,21.73
2022-08-17T20:54:40.442Z,21.68
2022-08-17T20:57:14.212Z,21.62
2022-08-17T21:00:13.844Z,21.59
2022-08-17T21:02:44.000Z,21.53
2022-08-17T21:05:31.660Z,21.48
2022-08-17T21:08:12.640Z,21.40
2022-08-17T21:10:40.664Z,21.35
2022-08-17T21:13:34.170Z,21.28
2022-08-17T21:16:20.598Z,21.26
2022-08-17T21:19:00.136Z,21.16
2022-08-17T21:21:37.377Z,21.01
2022-08-17T21:24:18.685Z,20.93
2022-08-17T21:26:56.347Z,20.93
2022-08-17T21:29:30.831Z,20.88
2022-08-17T21:32:24.705Z,20.77
2022-08-17T21:35:26.049Z,20.72
2022-08-17T21:38:01.616Z,20.71
2022-08-17T21:40:32.511Z,20.69
2022-08-17T21:43:16.679Z,20.67
2022-08-17T21:45:57.072Z,20.66
2022-08-17T21:48:26.733Z,20.59
2022-08-17T21:51:03.227Z,20.53
2022-08-17T21:53:38.288Z,20.52
2022-08-17T21:56:11.327Z,20.50
2022-08-17T21:58:47.900Z,20.48
2022-08-17T22:01:23.636Z,20.44
2022-08-17T22:04:03.215Z,20.43
2022-08-17T22:06:37.915Z,20.42
2022-08-17T22:09:17.199Z,20.36
2022-08-17T22:11:55.244Z,20.35
2022-08-17T22:14:26.373Z,20.32
2022-08-17T22:17:08.008Z,20.21
2022-08-17T22:19:38.369Z,20.04
2022-08-17T22:22:09.651Z,19.99
2022-08-17T22:24:38.712Z,19.94
2022-08-17T22:27:10.841Z,19.91
2022-08-17T22:29:53.251Z,19.88
2022-08-17T22:32:41.995Z,19.89
2022-08-17T22:35:35.929Z,19.85
2022-08-17T22:38:27.211Z,19.80
2022-08-17T22:40:57.166Z,19.78
2022-08-17T22:43:29.095Z,19.75
2022-08-17T22:45:59.561Z,19.77
2022-08-17T22:48:30.562Z,19.79
2022-08-17T22:51:12.678Z,19.75
2022-08-17T22:54:06.776Z,19.70
2022-08-17T22:56:53.727Z,19.60
2022-08-17T22:59:42.939Z,19.48
2022-08-17T23:02:24.408Z,19.39
2022-08-17T23:04:56.820Z,19.37
2022-08-17T23:07:26.237Z,19.38
2022-08-17T23:09:57.191Z,19.38
2022-08-17T23:12:27.086Z,19.38
2022-08-17T23:15:00.241Z,19.41
2022-08-17T23:17:36.903Z,19.43
2022-08-17T23:20:11.411Z,19.42
2022-08-17T23:22:52.438Z,19.41
2022-08-17T23:25:27.313Z,19.43
2022-08-17T23:27:57.767Z,19.40
2022-08-17T23:30:27.824Z,19.37
2022-08-17T23:32:58.888Z,19.28
2022-08-17T23:35:39.806Z,19.20
2022-08-17T23:38:10.389Z,19.07
2022-08-17T23:40:40.065Z,19.03
2022-08-17T23:43:17.604Z,19.02
2022-08-17T23:45:54.227Z,18.96
2022-08-17T23:48:32.589Z,18.90
2022-08-17T23:51:12.182Z,18.90
2022-08-17T23:53:45.490Z,18.94
2022-08-17T23:56:14.267Z,18.98
2022-08-17T23:58:44.059Z,19.00
